Time;durP1;ratioP1;P1;durP2;ratioP2;P2;SDS_P1;SDS_P2;PMS_P1;PMS_P2;Temp;Humidity;BMP_temperature;BMP_pressure;BME280_temperature;BME280_humidity;BME280_pressure;Samples;Min_cycle;Max_cycle;Signal;HPM_P1;HPM_P2
2023/08/29 00:00:15;;;;;;;5.78;3.10;;;12.60;99.90;;;;;;5074956;28;20059;-39
2023/08/29 00:02:41;;;;;;;6.38;4.00;;;12.50;99.90;;;;;;5074728;28;20467;-39
2023/08/29 00:05:09;;;;;;;4.30;3.22;;;12.50;99.90;;;;;;5074258;28;20485;-40
2023/08/29 00:07:35;;;;;;;3.25;2.88;;;12.40;99.90;;;;;;5074926;28;20048;-39
2023/08/29 00:10:01;;;;;;;3.55;2.47;;;12.30;99.90;;;;;;5074581;28;20054;-39
2023/08/29 00:12:27;;;;;;;3.00;2.47;;;12.20;99.90;;;;;;5074679;28;20123;-40
2023/08/29 00:14:52;;;;;;;3.35;3.05;;;12.20;99.90;;;;;;5074496;28;20164;-40
2023/08/29 00:17:18;;;;;;;4.53;2.80;;;12.10;99.90;;;;;;5075271;28;20498;-39
2023/08/29 00:19:44;;;;;;;3.42;3.13;;;12.10;99.90;;;;;;5074394;28;20079;-40
2023/08/29 00:22:10;;;;;;;6.00;4.45;;;12.10;99.90;;;;;;5064595;28;20486;-39
2023/08/29 00:24:36;;;;;;;4.32;3.75;;;12.10;99.90;;;;;;5046394;28;20048;-39
2023/08/29 00:27:02;;;;;;;5.78;4.07;;;12.10;99.90;;;;;;5073546;28;20117;-39
2023/08/29 00:29:28;;;;;;;4.00;3.55;;;12.10;99.90;;;;;;5075006;28;20033;-40
2023/08/29 00:31:54;;;;;;;4.57;2.60;;;12.10;99.90;;;;;;5074331;28;20241;-40
2023/08/29 00:34:19;;;;;;;4.65;3.45;;;12.10;99.90;;;;;;5074367;28;20139;-40
2023/08/29 00:36:45;;;;;;;5.55;3.10;;;12.00;99.90;;;;;;5074832;28;20048;-40
2023/08/29 00:39:11;;;;;;;7.32;3.80;;;12.00;99.90;;;;;;5077404;28;20058;-40
2023/08/29 00:41:36;;;;;;;3.33;2.92;;;12.00;99.90;;;;;;5078126;28;20133;-39
2023/08/29 00:44:02;;;;;;;4.72;3.53;;;12.00;99.90;;;;;;5078819;28;20078;-40
2023/08/29 00:46:28;;;;;;;4.55;3.78;;;12.00;99.90;;;;;;5048864;28;20064;-39
2023/08/29 00:48:54;;;;;;;5.40;4.13;;;12.10;99.90;;;;;;5078617;28;20293;-40
2023/08/29 00:51:20;;;;;;;3.40;3.05;;;12.10;99.90;;;;;;5057624;28;20044;-39
2023/08/29 00:53:46;;;;;;;4.65;3.45;;;12.00;99.90;;;;;;5049828;28;20102;-40
2023/08/29 00:56:17;;;;;;;5.30;3.67;;;12.00;99.90;;;;;;5075733;28;20113;-40
2023/08/29 00:58:43;;;;;;;4.10;3.45;;;12.00;99.90;;;;;;5078332;28;20044;-39
2023/08/29 01:01:08;;;;;;;9.23;4.97;;;12.00;99.90;;;;;;5077568;28;20751;-39
2023/08/29 01:03:35;;;;;;;6.50;4.20;;;12.00;99.90;;;;;;5078576;28;20289;-39
2023/08/29 01:06:01;;;;;;;4.78;4.03;;;12.00;99.90;;;;;;5077127;28;20052;-40
2023/08/29 01:08:26;;;;;;;5.95;3.90;;;11.90;99.90;;;;;;5076920;28;20044;-39
2023/08/29 01:11:04;;;;;;;3.80;3.30;;;11.90;99.90;;;;;;5077342;28;20048;-40
2023/08/29 01:13:54;;;;;;;5.00;3.17;;;11.90;99.90;;;;;;5076858;28;20366;-39
2023/08/29 01:16:27;;;;;;;5.90;3.00;;;11.80;99.90;;;;;;5077998;28;20303;-40
2023/08/29 01:18:53;;;;;;;;;;;11.80;99.90;;;;;;5077987;28;20045;-39
2023/08/29 01:21:38;;;;;;;4.72;2.80;;;11.80;99.90;;;;;;5077281;28;20474;-39
2023/08/29 01:24:32;;;;;;;5.85;3.97;;;11.80;99.90;;;;;;5045914;28;20052;-39
2023/08/29 01:26:58;;;;;;;;;;;11.80;99.90;;;;;;5048203;28;20254;-40
2023/08/29 01:29:25;;;;;;;3.85;2.58;;;11.80;99.90;;;;;;5046348;28;20609;-39
2023/08/29 01:31:51;;;;;;;3.90;3.17;;;11.80;99.90;;;;;;5037139;28;20123;-39
2023/08/29 01:34:16;;;;;;;3.47;2.92;;;11.80;99.90;;;;;;5054790;28;20048;-40
2023/08/29 01:36:43;;;;;;;5.18;3.08;;;11.80;99.90;;;;;;5053659;28;20059;-39
2023/08/29 01:39:09;;;;;;;4.78;3.33;;;11.80;99.90;;;;;;5054697;28;20126;-39
2023/08/29 01:41:35;;;;;;;4.10;2.60;;;11.80;99.90;;;;;;5053349;28;20052;-39
2023/08/29 01:44:05;;;;;;;4.15;2.95;;;11.70;99.90;;;;;;5054115;28;20060;-39
2023/08/29 01:46:31;;;;;;;3.65;3.08;;;11.70;99.90;;;;;;5033353;28;20048;-39
2023/08/29 01:48:59;;;;;;;3.53;2.75;;;11.70;99.90;;;;;;5053216;28;20055;-40
2023/08/29 01:51:25;;;;;;;4.70;2.70;;;11.60;99.90;;;;;;5034696;28;20155;-39
2023/08/29 01:53:52;;;;;;;3.35;2.88;;;11.60;99.90;;;;;;5038316;28;20095;-39
2023/08/29 01:56:20;;;;;;;2.50;1.55;;;11.60;99.90;;;;;;5053720;28;20056;-39
2023/08/29 01:58:48;;;;;;;2.47;1.52;;;11.60;99.90;;;;;;5054627;28;20044;-40
2023/08/29 02:01:14;;;;;;;3.17;1.65;;;11.60;99.90;;;;;;5041785;28;20159;-39
2023/08/29 02:03:40;;;;;;;4.32;1.90;;;11.50;99.90;;;;;;5046778;28;20493;-39
2023/08/29 02:06:05;;;;;;;4.82;2.55;;;11.50;99.90;;;;;;5053910;28;20052;-39
2023/08/29 02:08:32;;;;;;;2.85;1.90;;;11.30;99.90;;;;;;5057189;28;20044;-39
2023/08/29 02:10:57;;;;;;;3.13;1.80;;;11.30;99.90;;;;;;5056734;28;20043;-39
2023/08/29 02:13:23;;;;;;;1.75;1.50;;;11.20;99.90;;;;;;5057029;28;20056;-40
2023/08/29 02:15:49;;;;;;;1.60;1.30;;;11.20;99.90;;;;;;5056598;28;20044;-39
2023/08/29 02:18:14;;;;;;;4.32;1.73;;;11.20;99.90;;;;;;5057492;28;20565;-40
2023/08/29 02:20:40;;;;;;;2.25;1.45;;;11.10;99.90;;;;;;5076426;28;20094;-39
2023/08/29 02:23:06;;;;;;;3.35;1.50;;;11.10;99.90;;;;;;5052011;28;20055;-39
2023/08/29 02:25:32;;;;;;;1.88;1.48;;;11.10;99.90;;;;;;5076382;28;20498;-39
2023/08/29 02:27:58;;;;;;;4.55;1.80;;;11.10;99.90;;;;;;5076562;28;20043;-39
2023/08/29 02:30:23;;;;;;;2.10;1.70;;;11.10;99.90;;;;;;5076318;28;20569;-39
2023/08/29 02:32:49;;;;;;;2.80;1.92;;;11.00;99.90;;;;;;5076852;28;20054;-39
2023/08/29 02:35:15;;;;;;;3.53;2.05;;;11.00;99.90;;;;;;5074926;28;20051;-40
2023/08/29 02:37:40;;;;;;;2.42;1.80;;;11.00;99.90;;;;;;5075164;28;20523;-39
2023/08/29 02:40:08;;;;;;;1.73;1.30;;;11.00;99.90;;;;;;5075292;28;20109;-40
2023/08/29 02:42:34;;;;;;;2.63;1.40;;;10.90;99.90;;;;;;5077167;28;20052;-39
2023/08/29 02:45:00;;;;;;;2.28;1.60;;;10.90;99.90;;;;;;5063634;28;20068;-39
2023/08/29 02:47:26;;;;;;;1.80;1.20;;;10.90;99.90;;;;;;5061367;28;20414;-39
2023/08/29 02:49:52;;;;;;;1.83;1.52;;;10.90;99.90;;;;;;5075063;28;20048;-39
2023/08/29 02:52:17;;;;;;;2.60;1.60;;;10.80;99.90;;;;;;5056761;28;20415;-39
2023/08/29 02:54:43;;;;;;;1.90;1.30;;;10.80;99.90;;;;;;5054006;28;20102;-39
2023/08/29 02:57:09;;;;;;;2.20;1.50;;;10.80;99.90;;;;;;5055921;28;20053;-39
2023/08/29 02:59:34;;;;;;;3.03;1.52;;;10.80;99.90;;;;;;5055660;28;20390;-39
2023/08/29 03:02:02;;;;;;;2.38;1.70;;;10.80;99.90;;;;;;5068755;28;20048;-39
2023/08/29 03:04:29;;;;;;;2.47;2.03;;;10.90;99.90;;;;;;5076494;28;20091;-39
2023/08/29 03:06:54;;;;;;;2.47;1.70;;;10.80;99.90;;;;;;5074419;28;20685;-39
2023/08/29 03:09:21;;;;;;;3.67;2.45;;;10.80;99.90;;;;;;5075849;28;20044;-39
2023/08/29 03:11:46;;;;;;;5.38;2.92;;;10.80;99.90;;;;;;5076132;28;20055;-39
2023/08/29 03:14:12;;;;;;;3.22;2.83;;;10.80;99.90;;;;;;5056292;28;20410;-39
2023/08/29 03:16:38;;;;;;;3.17;2.10;;;10.80;99.90;;;;;;5055586;28;20131;-40
2023/08/29 03:19:03;;;;;;;2.80;2.00;;;10.80;99.90;;;;;;5063626;28;20044;-39
2023/08/29 03:21:29;;;;;;;3.78;2.55;;;10.80;99.90;;;;;;5075740;28;20083;-39
2023/08/29 03:23:54;;;;;;;3.17;2.58;;;10.80;99.90;;;;;;5044045;28;20489;-39
2023/08/29 03:26:20;;;;;;;3.88;2.60;;;10.80;99.90;;;;;;5055585;28;20052;-39
2023/08/29 03:28:46;;;;;;;4.25;2.80;;;10.80;99.90;;;;;;5062623;28;20051;-39
2023/08/29 03:31:13;;;;;;;2.63;1.85;;;10.80;99.90;;;;;;5061684;28;20056;-39
2023/08/29 03:33:40;;;;;;;2.67;2.30;;;10.80;99.90;;;;;;5062582;28;20573;-39
2023/08/29 03:36:07;;;;;;;2.88;1.98;;;10.80;99.90;;;;;;5074654;28;20054;-39
2023/08/29 03:38:37;;;;;;;4.13;3.05;;;10.80;99.90;;;;;;5075334;28;20090;-39
2023/08/29 03:41:04;;;;;;;4.20;3.10;;;10.80;99.90;;;;;;5075075;28;20061;-39
2023/08/29 03:43:31;;;;;;;5.28;3.17;;;10.80;99.90;;;;;;5076267;28;20040;-38
2023/08/29 03:46:02;;;;;;;4.10;3.03;;;10.80;99.90;;;;;;5046124;28;20053;-39
2023/08/29 03:48:28;;;;;;;4.35;3.45;;;10.70;99.90;;;;;;5076177;28;20051;-39
2023/08/29 03:50:54;;;;;;;4.97;3.28;;;10.70;99.90;;;;;;5074329;28;20100;-39
2023/08/29 03:53:20;;;;;;;4.53;3.58;;;10.70;99.90;;;;;;5047574;28;20218;-39
2023/08/29 03:55:45;;;;;;;5.05;3.40;;;10.60;99.90;;;;;;5054118;28;20380;-39
2023/08/29 03:58:11;;;;;;;4.97;3.13;;;10.50;99.90;;;;;;5055994;28;20103;-39
2023/08/29 04:00:37;;;;;;;3.75;3.03;;;10.50;99.90;;;;;;5045087;28;20036;-39
2023/08/29 04:03:06;;;;;;;4.28;2.67;;;10.50;99.90;;;;;;5052943;28;20582;-39
2023/08/29 04:05:32;;;;;;;4.57;3.25;;;10.40;99.90;;;;;;5053144;28;20434;-39
2023/08/29 04:07:57;;;;;;;5.93;3.47;;;10.50;99.90;;;;;;5054414;28;20045;-39
2023/08/29 04:10:23;;;;;;;7.28;3.40;;;10.50;99.90;;;;;;5054699;28;20052;-39
2023/08/29 04:12:49;;;;;;;4.88;3.95;;;10.40;99.90;;;;;;5059344;28;20052;-39
2023/08/29 04:15:14;;;;;;;4.00;2.80;;;10.50;99.90;;;;;;5061022;28;20087;-39
2023/08/29 04:17:40;;;;;;;5.68;3.30;;;10.50;99.90;;;;;;5060573;28;20059;-39
2023/08/29 04:20:08;;;;;;;5.00;3.22;;;10.50;99.90;;;;;;5075890;28;20055;-39
2023/08/29 04:22:38;;;;;;;5.57;3.90;;;10.50;99.90;;;;;;5066314;28;20055;-39
2023/08/29 04:25:07;;;;;;;5.43;3.92;;;10.50;99.90;;;;;;5070512;28;20044;-40
2023/08/29 04:27:34;;;;;;;5.70;3.00;;;10.50;99.90;;;;;;5072652;28;20056;-39
2023/08/29 04:30:00;;;;;;;3.80;3.40;;;10.60;99.90;;;;;;5081546;28;20573;-39
2023/08/29 04:32:25;;;;;;;3.35;3.05;;;10.50;99.90;;;;;;5082510;28;20481;-39
2023/08/29 04:34:51;;;;;;;4.15;3.00;;;10.50;99.90;;;;;;5081613;28;20105;-39
2023/08/29 04:37:17;;;;;;;3.80;2.83;;;10.50;99.90;;;;;;5083057;28;20044;-41
2023/08/29 04:39:44;;;;;;;3.58;2.25;;;10.50;99.90;;;;;;5081789;28;20051;-39
2023/08/29 04:42:10;;;;;;;3.33;2.20;;;10.40;99.90;;;;;;5081374;28;20148;-39
2023/08/29 04:44:35;;;;;;;3.95;2.38;;;10.40;99.90;;;;;;5074946;28;20131;-39
2023/08/29 04:47:03;;;;;;;2.97;2.30;;;10.40;99.90;;;;;;5051075;28;20059;-40
2023/08/29 04:49:29;;;;;;;4.43;2.45;;;10.40;99.90;;;;;;5060955;28;20040;-39
2023/08/29 04:51:55;;;;;;;4.00;2.42;;;10.30;99.90;;;;;;5055072;28;20128;-38
2023/08/29 04:54:21;;;;;;;2.80;2.25;;;10.40;99.90;;;;;;5057202;28;20052;-39
2023/08/29 04:56:47;;;;;;;2.28;1.85;;;10.40;99.90;;;;;;5060324;28;20048;-39
2023/08/29 04:59:13;;;;;;;3.85;2.95;;;10.40;99.90;;;;;;5061895;28;20090;-39
2023/08/29 05:01:38;;;;;;;2.75;1.77;;;10.40;99.90;;;;;;5061493;28;20570;-39
2023/08/29 05:04:04;;;;;;;2.83;2.00;;;10.50;99.90;;;;;;5060311;28;20558;-39
2023/08/29 05:06:30;;;;;;;2.33;1.85;;;10.50;99.90;;;;;;5060361;28;20156;-39
2023/08/29 05:08:56;;;;;;;2.17;1.77;;;10.50;99.90;;;;;;5062613;28;20054;-39
2023/08/29 05:11:21;;;;;;;2.15;1.88;;;10.50;99.90;;;;;;5081027;28;20052;-39
2023/08/29 05:13:47;;;;;;;2.60;1.80;;;10.50;99.90;;;;;;5080292;28;20154;-39
2023/08/29 05:16:13;;;;;;;2.42;2.08;;;10.50;99.90;;;;;;5081025;28;20526;-39
2023/08/29 05:18:38;;;;;;;3.00;1.80;;;10.50;99.90;;;;;;5081972;28;20566;-39
2023/08/29 05:21:04;;;;;;;3.40;2.00;;;10.50;99.90;;;;;;5080619;28;20464;-39
2023/08/29 05:23:30;;;;;;;2.90;1.90;;;10.50;99.90;;;;;;5051521;28;20057;-39
2023/08/29 05:25:55;;;;;;;3.25;2.20;;;10.60;99.90;;;;;;5056359;28;20048;-39
2023/08/29 05:28:21;;;;;;;4.60;1.80;;;10.80;99.90;;;;;;5058309;28;20211;-39
2023/08/29 05:30:46;;;;;;;2.67;2.03;;;10.90;99.90;;;;;;5057113;28;20059;-39
2023/08/29 05:33:12;;;;;;;2.45;2.05;;;11.20;99.90;;;;;;5058318;28;20052;-39
2023/08/29 05:35:38;;;;;;;3.33;2.20;;;11.80;99.90;;;;;;5057611;28;20553;-39
2023/08/29 05:38:03;;;;;;;2.28;1.95;;;12.90;99.90;;;;;;5074702;28;20047;-40
2023/08/29 05:40:29;;;;;;;5.25;2.08;;;14.00;99.90;;;;;;5078046;28;20048;-40
2023/08/29 05:42:55;;;;;;;3.30;2.22;;;15.00;99.90;;;;;;5073091;28;20101;-40
2023/08/29 05:45:20;;;;;;;4.15;1.83;;;16.00;99.90;;;;;;5048947;28;20060;-40
2023/08/29 05:47:46;;;;;;;5.28;2.20;;;16.70;99.90;;;;;;5068471;28;20045;-40
2023/08/29 05:50:12;;;;;;;2.88;2.38;;;16.90;99.90;;;;;;5057437;28;20079;-39
2023/08/29 05:52:37;;;;;;;3.65;2.70;;;16.80;99.90;;;;;;5046880;28;20407;-40
2023/08/29 05:55:04;;;;;;;4.78;2.50;;;16.90;99.90;;;;;;5057576;28;20457;-40
2023/08/29 05:57:29;;;;;;;3.08;2.17;;;17.10;99.90;;;;;;5073029;28;20076;-40
2023/08/29 05:59:55;;;;;;;2.88;2.10;;;17.40;99.90;;;;;;5077580;28;20488;-40
2023/08/29 06:02:21;;;;;;;3.70;2.17;;;17.70;99.90;;;;;;5077270;28;20052;-40
2023/08/29 06:04:47;;;;;;;2.47;2.17;;;18.30;99.90;;;;;;5077566;28;20900;-40
2023/08/29 06:07:13;;;;;;;4.45;2.50;;;19.20;99.90;;;;;;5077623;28;20052;-40
2023/08/29 06:09:39;;;;;;;2.65;2.20;;;20.20;99.90;;;;;;5076865;28;20054;-41
2023/08/29 06:12:06;;;;;;;4.15;2.90;;;21.20;99.90;;;;;;5077017;28;20104;-40
2023/08/29 06:14:32;;;;;;;3.28;2.72;;;21.70;99.90;;;;;;5076882;28;20475;-40
2023/08/29 06:16:58;;;;;;;5.35;2.88;;;21.60;99.90;;;;;;5076466;28;20044;-41
2023/08/29 06:19:23;;;;;;;3.50;3.20;;;22.00;99.90;;;;;;5076765;28;20056;-41
2023/08/29 06:21:49;;;;;;;3.15;2.45;;;21.60;99.90;;;;;;5073732;28;20073;-41
2023/08/29 06:24:14;;;;;;;3.50;3.17;;;21.40;99.90;;;;;;5077508;28;20570;-41
2023/08/29 06:26:41;;;;;;;3.25;2.92;;;21.40;99.90;;;;;;5073251;28;20528;-41
2023/08/29 06:29:07;;;;;;;4.35;2.75;;;21.30;99.90;;;;;;5076954;28;20084;-41
2023/08/29 06:31:32;;;;;;;5.18;3.08;;;21.10;99.90;;;;;;5076606;28;20087;-40
2023/08/29 06:33:59;;;;;;;4.05;2.78;;;21.10;99.90;;;;;;5077506;28;20127;-41
2023/08/29 06:36:26;;;;;;;3.90;3.53;;;20.50;99.90;;;;;;5073173;28;20278;-41
2023/08/29 06:38:52;;;;;;;3.47;3.15;;;19.90;99.90;;;;;;5058170;28;20052;-41
2023/08/29 06:41:17;;;;;;;4.28;3.15;;;19.80;99.90;;;;;;5055482;28;20518;-41
2023/08/29 06:43:43;;;;;;;3.90;3.50;;;19.90;99.90;;;;;;5056025;28;20051;-40
2023/08/29 06:46:09;;;;;;;3.90;3.53;;;20.00;99.90;;;;;;5051016;28;20064;-41
2023/08/29 06:48:35;;;;;;;4.10;3.70;;;20.10;99.90;;;;;;5058531;28;20036;-41
2023/08/29 06:51:01;;;;;;;5.13;3.67;;;19.90;99.90;;;;;;5055299;28;20974;-41
2023/08/29 06:53:27;;;;;;;3.85;3.13;;;19.60;99.90;;;;;;5054031;28;20044;-42
2023/08/29 06:55:53;;;;;;;5.30;3.28;;;20.00;99.90;;;;;;5054652;28;20052;-42
2023/08/29 06:58:18;;;;;;;5.30;3.65;;;20.60;99.90;;;;;;5054631;28;20454;-41
2023/08/29 07:00:44;;;;;;;3.88;3.42;;;21.10;99.90;;;;;;5055066;28;20052;-41
2023/08/29 07:03:10;;;;;;;5.03;3.03;;;21.40;99.90;;;;;;5056547;28;20060;-40
2023/08/29 07:05:36;;;;;;;4.38;3.83;;;21.40;99.90;;;;;;5055707;28;20071;-41
2023/08/29 07:08:03;;;;;;;4.88;3.10;;;21.60;99.90;;;;;;5055788;28;20052;-41
2023/08/29 07:10:29;;;;;;;5.47;3.47;;;21.70;99.90;;;;;;5054009;28;20056;-41
2023/08/29 07:12:54;;;;;;;3.33;2.70;;;21.70;99.90;;;;;;5055683;28;20106;-41
2023/08/29 07:15:20;;;;;;;4.38;3.00;;;21.70;99.90;;;;;;5055187;28;20099;-41
2023/08/29 07:17:45;;;;;;;3.72;3.03;;;21.40;99.90;;;;;;5055723;28;20051;-41
2023/08/29 07:20:11;;;;;;;3.88;2.78;;;21.20;99.90;;;;;;5037810;28;20507;-41
2023/08/29 07:22:43;;;;;;;4.45;2.50;;;21.10;99.90;;;;;;5048551;28;20057;-41
2023/08/29 07:25:11;;;;;;;3.73;2.20;;;20.80;99.90;;;;;;5069226;28;20119;-41
2023/08/29 07:27:36;;;;;;;2.60;2.40;;;20.60;99.90;;;;;;5065921;28;20049;-42
2023/08/29 07:30:03;;;;;;;4.75;2.92;;;20.30;99.90;;;;;;5053796;28;20494;-41
2023/08/29 07:32:30;;;;;;;5.32;1.95;;;20.20;99.90;;;;;;5067743;28;20073;-41
2023/08/29 07:34:56;;;;;;;2.70;1.70;;;20.00;99.90;;;;;;5075769;28;20514;-41
2023/08/29 07:37:23;;;;;;;4.00;2.17;;;19.90;99.90;;;;;;5076382;28;20130;-41
2023/08/29 07:39:48;;;;;;;2.83;1.75;;;19.90;99.90;;;;;;5071287;28;20059;-41
2023/08/29 07:42:14;;;;;;;2.72;1.90;;;19.80;99.90;;;;;;5055020;28;20045;-41
2023/08/29 07:44:40;;;;;;;4.65;2.00;;;19.90;99.90;;;;;;5054168;28;20210;-41
2023/08/29 07:47:05;;;;;;;3.05;1.60;;;19.90;99.90;;;;;;5054005;28;20399;-41
2023/08/29 07:49:31;;;;;;;3.08;1.60;;;19.80;99.90;;;;;;5055443;28;20545;-41
2023/08/29 07:51:57;;;;;;;1.88;1.40;;;19.70;99.90;;;;;;5053500;28;20388;-41
2023/08/29 07:54:23;;;;;;;2.53;1.85;;;19.60;99.90;;;;;;5054598;28;20392;-41
2023/08/29 07:56:48;;;;;;;1.85;1.42;;;19.70;99.90;;;;;;5055729;28;20059;-41
2023/08/29 07:59:14;;;;;;;3.85;1.73;;;19.70;99.90;;;;;;5053297;28;20056;-40
2023/08/29 08:01:42;;;;;;;1.63;1.20;;;19.80;99.90;;;;;;5055395;28;20483;-41
2023/08/29 08:04:07;;;;;;;3.08;1.40;;;19.60;99.90;;;;;;5054907;28;20537;-40
2023/08/29 08:06:34;;;;;;;3.45;1.35;;;19.70;99.90;;;;;;5055623;28;20048;-41
2023/08/29 08:09:01;;;;;;;2.05;1.50;;;19.80;99.90;;;;;;5054049;28;20669;-41
2023/08/29 08:11:26;;;;;;;2.58;1.20;;;19.80;99.90;;;;;;5054847;28;20051;-41
2023/08/29 08:13:52;;;;;;;2.08;1.30;;;19.90;99.90;;;;;;5053480;28;20060;-41
2023/08/29 08:16:17;;;;;;;2.17;1.30;;;19.90;99.90;;;;;;5054660;28;20114;-41
2023/08/29 08:18:43;;;;;;;2.58;1.50;;;20.00;99.90;;;;;;5054398;28;20549;-41
2023/08/29 08:21:09;;;;;;;3.40;1.60;;;20.20;99.90;;;;;;5052625;28;20485;-41
2023/08/29 08:23:34;;;;;;;2.78;1.80;;;20.40;99.90;;;;;;5051944;28;20084;-41
2023/08/29 08:26:00;;;;;;;3.58;2.15;;;20.70;99.90;;;;;;5054814;28;20544;-41
2023/08/29 08:28:26;;;;;;;3.35;2.35;;;20.90;99.90;;;;;;5055371;28;20080;-41
2023/08/29 08:30:51;;;;;;;2.55;2.35;;;21.00;99.90;;;;;;5053530;28;20067;-41
2023/08/29 08:33:17;;;;;;;2.97;2.60;;;21.20;99.90;;;;;;5055077;28;20123;-42
2023/08/29 08:35:43;;;;;;;4.05;2.45;;;21.10;99.90;;;;;;5054749;28;20910;-41
2023/08/29 08:38:09;;;;;;;3.67;2.30;;;21.00;99.90;;;;;;5055143;28;20475;-41
2023/08/29 08:40:38;;;;;;;6.55;2.55;;;20.70;99.90;;;;;;5054225;28;20147;-42
2023/08/29 08:43:05;;;;;;;4.32;2.10;;;20.70;99.90;;;;;;5055194;28;20044;-41
2023/08/29 08:45:31;;;;;;;2.85;2.00;;;20.60;99.90;;;;;;5055886;28;20145;-41
2023/08/29 08:47:59;;;;;;;6.35;2.20;;;20.50;99.90;;;;;;5054353;28;20047;-41
2023/08/29 08:50:25;;;;;;;2.58;2.00;;;20.40;99.90;;;;;;5053727;28;20163;-41
2023/08/29 08:52:51;;;;;;;3.47;2.22;;;20.30;99.90;;;;;;5042928;28;20049;-41
2023/08/29 08:55:17;;;;;;;3.40;2.20;;;20.40;99.90;;;;;;5053308;28;20049;-42
2023/08/29 08:57:43;;;;;;;2.55;2.10;;;20.60;99.90;;;;;;5054909;28;20059;-41
2023/08/29 09:00:09;;;;;;;4.85;2.75;;;20.60;99.90;;;;;;5057761;28;20133;-41
2023/08/29 09:02:39;;;;;;;2.97;2.47;;;20.50;99.90;;;;;;5058192;28;20491;-41
2023/08/29 09:05:05;;;;;;;2.75;2.50;;;20.60;99.90;;;;;;5058297;28;20036;-41
2023/08/29 09:07:31;;;;;;;4.45;2.88;;;20.50;99.90;;;;;;5058829;28;20044;-41
2023/08/29 09:10:09;;;;;;;5.18;2.65;;;20.50;99.90;;;;;;5069102;28;20090;-41
2023/08/29 09:12:56;;;;;;;3.85;2.60;;;20.50;99.90;;;;;;5061980;28;20052;-41
2023/08/29 09:15:22;;;;;;;4.07;3.03;;;20.60;99.90;;;;;;5054975;28;20155;-41
2023/08/29 09:17:52;;;;;;;3.13;2.83;;;20.50;99.90;;;;;;5058395;28;20049;-41
2023/08/29 09:20:19;;;;;;;3.72;3.25;;;20.60;99.90;;;;;;5056213;28;20083;-41
2023/08/29 09:22:46;;;;;;;5.80;2.95;;;20.50;99.90;;;;;;5046673;28;20053;-41
2023/08/29 09:25:12;;;;;;;4.43;2.70;;;20.50;99.90;;;;;;5058907;28;20039;-42
2023/08/29 09:27:46;;;;;;;3.83;2.90;;;20.70;99.90;;;;;;5064632;28;20119;-41
2023/08/29 09:30:15;;;;;;;3.00;2.55;;;20.70;99.90;;;;;;5058956;28;20510;-41
2023/08/29 09:32:43;;;;;;;5.75;2.88;;;20.80;99.90;;;;;;5058494;28;20048;-41
2023/08/29 09:35:15;;;;;;;3.45;2.80;;;20.80;99.90;;;;;;5061749;28;20775;-41
2023/08/29 09:37:47;;;;;;;4.05;2.33;;;20.90;99.90;;;;;;5055662;28;20604;-42
2023/08/29 09:40:18;;;;;;;3.50;2.80;;;20.90;99.90;;;;;;5054674;28;20055;-41
2023/08/29 09:43:04;;;;;;;3.83;3.13;;;20.70;99.90;;;;;;5055465;28;20056;-41
2023/08/29 09:45:30;;;;;;;4.57;3.10;;;20.50;99.90;;;;;;5047264;28;20587;-41
2023/08/29 09:48:05;;;;;;;2.50;2.30;;;20.40;99.90;;;;;;5056600;28;20154;-41
2023/08/29 09:50:32;;;;;;;4.25;2.30;;;20.40;99.90;;;;;;5065506;28;20528;-41
2023/08/29 09:52:59;;;;;;;2.67;2.30;;;20.40;99.90;;;;;;5052200;28;20845;-42
2023/08/29 09:55:26;;;;;;;2.70;2.30;;;20.40;99.90;;;;;;5057325;28;20086;-41
2023/08/29 09:57:53;;;;;;;3.80;2.58;;;20.40;99.90;;;;;;5055599;28;20411;-42
2023/08/29 10:00:22;;;;;;;3.28;2.58;;;20.30;99.90;;;;;;5056695;28;20049;-41
2023/08/29 10:02:54;;;;;;;4.03;2.63;;;20.40;99.90;;;;;;5057436;28;20239;-41
2023/08/29 10:05:23;;;;;;;4.22;2.42;;;20.50;99.90;;;;;;5057021;28;20130;-42
2023/08/29 10:07:54;;;;;;;4.40;2.80;;;20.60;99.90;;;;;;5055040;28;20455;-41
2023/08/29 10:10:21;;;;;;;2.92;2.63;;;20.70;99.90;;;;;;5054079;28;20059;-41
2023/08/29 10:12:48;;;;;;;4.05;2.95;;;20.70;99.90;;;;;;5057438;28;20505;-41
2023/08/29 10:15:16;;;;;;;3.50;2.88;;;20.70;99.90;;;;;;5056031;28;20061;-41
2023/08/29 10:17:42;;;;;;;3.85;2.78;;;20.80;99.90;;;;;;5056309;28;20048;-41
2023/08/29 10:20:12;;;;;;;3.78;2.67;;;20.80;99.90;;;;;;5056228;28;20403;-42
2023/08/29 10:22:40;;;;;;;3.53;2.65;;;20.90;99.90;;;;;;5055985;28;20036;-41
2023/08/29 10:25:06;;;;;;;3.63;2.55;;;21.00;99.90;;;;;;5054131;28;20036;-42
2023/08/29 10:27:34;;;;;;;4.60;3.13;;;21.10;99.90;;;;;;5059961;28;20047;-41
2023/08/29 10:30:05;;;;;;;4.53;2.50;;;21.20;99.90;;;;;;5054485;28;20045;-43
2023/08/29 10:32:31;;;;;;;3.22;2.80;;;21.30;99.90;;;;;;5056863;28;20494;-41
2023/08/29 10:34:57;;;;;;;3.47;2.90;;;21.30;99.90;;;;;;5073723;28;20048;-41
2023/08/29 10:37:25;;;;;;;2.78;2.50;;;21.20;99.90;;;;;;5074222;28;20090;-41
2023/08/29 10:39:51;;;;;;;4.03;2.90;;;21.40;99.90;;;;;;5056148;28;20051;-42
2023/08/29 10:42:17;;;;;;;2.72;2.33;;;21.60;99.90;;;;;;5057973;28;20045;-46
2023/08/29 10:44:44;;;;;;;3.28;2.83;;;21.70;99.90;;;;;;5052339;28;20045;-43
2023/08/29 10:47:26;;;;;;;2.95;2.22;;;21.80;99.90;;;;;;5050933;28;20059;-41
2023/08/29 10:50:03;;;;;;;3.53;3.22;;;21.90;99.90;;;;;;5057735;28;20041;-42
2023/08/29 10:52:40;;;;;;;4.00;2.88;;;22.00;99.90;;;;;;5054054;28;20083;-42
2023/08/29 10:55:22;;;;;;;2.90;2.70;;;22.00;99.90;;;;;;5077142;28;20045;-42
2023/08/29 10:57:48;;;;;;;3.45;2.80;;;22.10;99.90;;;;;;5054848;28;20379;-42
2023/08/29 11:00:17;;;;;;;3.05;2.70;;;22.20;99.90;;;;;;5066686;28;20556;-46
2023/08/29 11:02:43;;;;;;;3.63;2.92;;;22.20;99.90;;;;;;5074985;28;20045;-42
2023/08/29 11:05:11;;;;;;;4.00;2.63;;;22.10;99.90;;;;;;5075345;28;20371;-43
2023/08/29 11:07:38;;;;;;;2.60;2.35;;;22.00;99.90;;;;;;5069670;28;20047;-42
2023/08/29 11:10:15;;;;;;;3.15;2.20;;;22.10;99.90;;;;;;5053555;28;20442;-43
2023/08/29 11:13:06;;;;;;;5.22;2.53;;;21.90;99.90;;;;;;5045098;28;20520;-41
2023/08/29 11:15:47;;;;;;;3.53;2.20;;;21.90;99.90;;;;;;5069265;28;20055;-42
2023/08/29 11:18:30;;;;;;;2.95;2.45;;;21.90;99.90;;;;;;5068887;28;20044;-43
2023/08/29 11:20:56;;;;;;;2.35;2.15;;;21.90;99.90;;;;;;5043071;28;20193;-41
2023/08/29 11:23:27;;;;;;;5.68;3.03;;;21.90;99.90;;;;;;5041772;28;20673;-42
2023/08/29 11:25:52;;;;;;;2.40;1.95;;;21.80;99.90;;;;;;5055107;28;20108;-43
2023/08/29 11:28:18;;;;;;;2.72;1.58;;;21.70;99.90;;;;;;5054784;28;20047;-43
2023/08/29 11:30:45;;;;;;;2.25;1.48;;;21.70;99.90;;;;;;5054198;28;20084;-42
2023/08/29 11:33:14;;;;;;;2.80;1.88;;;21.60;99.90;;;;;;5055199;28;20673;-42
2023/08/29 11:35:42;;;;;;;2.45;2.15;;;21.50;99.90;;;;;;5054784;28;20055;-42
2023/08/29 11:38:08;;;;;;;3.65;2.00;;;21.50;99.90;;;;;;5072004;28;20104;-42
2023/08/29 11:40:35;;;;;;;3.95;1.92;;;21.50;99.90;;;;;;5073412;28;20436;-41
2023/08/29 11:43:01;;;;;;;3.20;2.03;;;21.50;99.90;;;;;;5074262;28;20474;-41
2023/08/29 11:45:30;;;;;;;4.60;2.40;;;21.40;99.90;;;;;;5055617;28;20045;-42
2023/08/29 11:47:56;;;;;;;2.60;1.80;;;21.30;99.90;;;;;;5051278;28;20114;-42
2023/08/29 11:50:22;;;;;;;2.78;2.20;;;21.40;99.90;;;;;;5054344;28;20088;-41
2023/08/29 11:52:48;;;;;;;2.88;2.00;;;21.50;99.90;;;;;;5050153;28;20127;-41
2023/08/29 11:55:16;;;;;;;3.58;2.00;;;21.50;99.90;;;;;;5075032;28;20418;-42
2023/08/29 11:57:45;;;;;;;2.97;1.90;;;21.40;99.90;;;;;;5062085;28;20054;-42
2023/08/29 12:00:16;;;;;;;4.35;2.13;;;21.40;99.90;;;;;;5074670;28;20040;-41
2023/08/29 12:02:41;;;;;;;2.90;1.95;;;21.40;99.90;;;;;;5070538;28;20048;-42
2023/08/29 12:05:07;;;;;;;5.03;2.40;;;21.50;99.90;;;;;;5066399;28;20105;-42
2023/08/29 12:07:33;;;;;;;3.25;1.90;;;21.60;99.90;;;;;;5076187;28;20466;-41
2023/08/29 12:10:08;;;;;;;4.47;2.40;;;21.60;99.90;;;;;;5073589;28;20568;-41
2023/08/29 12:12:36;;;;;;;2.53;1.58;;;21.50;99.90;;;;;;5075819;28;20052;-42
2023/08/29 12:15:10;;;;;;;2.95;2.10;;;21.50;99.90;;;;;;5075678;28;20059;-41
2023/08/29 12:17:44;;;;;;;3.15;2.17;;;21.60;99.90;;;;;;5058354;28;20658;-42
2023/08/29 12:20:13;;;;;;;2.28;1.65;;;21.60;99.90;;;;;;5074578;28;20337;-43
2023/08/29 12:22:41;;;;;;;2.92;1.38;;;21.70;99.90;;;;;;5058567;28;20056;-42
2023/08/29 12:25:06;;;;;;;2.25;1.52;;;21.70;99.90;;;;;;5067939;28;20125;-42
2023/08/29 12:27:32;;;;;;;3.33;1.50;;;21.80;99.90;;;;;;5066512;28;20053;-42
2023/08/29 12:29:58;;;;;;;3.05;1.88;;;21.70;99.90;;;;;;5070382;28;21160;-42
2023/08/29 12:32:27;;;;;;;2.50;1.52;;;21.80;99.90;;;;;;5075814;28;20219;-42
2023/08/29 12:34:55;;;;;;;1.92;1.60;;;21.90;99.90;;;;;;5076672;28;20097;-43
2023/08/29 12:37:21;;;;;;;3.67;1.70;;;22.00;99.90;;;;;;5078340;28;20083;-42
2023/08/29 12:39:47;;;;;;;4.07;1.80;;;22.00;99.90;;;;;;5079193;28;20051;-43
2023/08/29 12:42:13;;;;;;;2.03;1.40;;;21.90;99.90;;;;;;5079429;28;20044;-44
2023/08/29 12:44:38;;;;;;;2.95;1.70;;;22.00;99.90;;;;;;5071969;28;20080;-41
2023/08/29 12:47:04;;;;;;;1.95;1.35;;;22.00;99.90;;;;;;5049010;28;20048;-42